createdAt,value
2023-04-20T00:00:18.641Z,180.46
2023-04-20T00:01:18.626Z,180.63
2023-04-20T00:02:18.700Z,179.60
2023-04-20T00:03:18.776Z,180.84
2023-04-20T00:04:18.624Z,180.56
2023-04-20T00:05:18.642Z,180.53
2023-04-20T00:06:18.605Z,179.15
2023-04-20T00:07:18.669Z,180.17
2023-04-20T00:08:18.570Z,178.64
2023-04-20T00:09:18.811Z,180.12
2023-04-20T00:10:18.606Z,178.75
2023-04-20T00:11:18.543Z,179.08
2023-04-20T00:12:18.598Z,178.67
2023-04-20T00:13:18.538Z,178.51
2023-04-20T00:14:18.522Z,179.10
2023-04-20T00:15:18.554Z,177.71
2023-04-20T00:16:18.534Z,177.34
2023-04-20T00:17:18.628Z,177.48
2023-04-20T00:18:18.508Z,177.26
2023-04-20T00:19:18.630Z,178.10
2023-04-20T00:20:18.451Z,177.85
2023-04-20T00:21:18.458Z,177.32
2023-04-20T00:22:18.471Z,178.12
2023-04-20T00:23:18.452Z,177.90
2023-04-20T00:24:18.444Z,178.01
2023-04-20T00:25:18.458Z,177.27
2023-04-20T00:26:18.422Z,178.31
2023-04-20T00:27:18.446Z,175.60
2023-04-20T00:28:18.401Z,178.13
2023-04-20T00:29:18.632Z,177.73
2023-04-20T00:30:18.378Z,176.98
2023-04-20T00:31:18.436Z,175.95
2023-04-20T00:32:18.386Z,179.31
2023-04-20T00:33:18.370Z,178.18
2023-04-20T00:34:18.367Z,176.94
2023-04-20T00:35:18.382Z,175.78
2023-04-20T00:36:18.404Z,175.80
2023-04-20T00:37:18.415Z,176.84
2023-04-20T00:38:18.444Z,175.41
2023-04-20T00:39:18.650Z,176.16
2023-04-20T00:40:18.447Z,176.89
2023-04-20T00:41:18.493Z,175.64
2023-04-20T00:42:18.489Z,175.61
2023-04-20T00:43:18.519Z,174.86
2023-04-20T00:44:18.553Z,176.17
2023-04-20T00:45:18.537Z,175.04
2023-04-20T00:46:18.636Z,175.65
2023-04-20T00:47:18.656Z,174.97
2023-04-20T00:48:18.622Z,173.53
2023-04-20T00:49:18.952Z,173.67
2023-04-20T00:50:18.701Z,174.23
2023-04-20T00:51:18.704Z,175.51
2023-04-20T00:52:18.694Z,174.14
2023-04-20T00:53:18.756Z,173.80
2023-04-20T00:54:18.742Z,174.48
2023-04-20T00:55:18.738Z,174.08
2023-04-20T00:56:18.781Z,173.08
2023-04-20T00:57:18.797Z,173.80
2023-04-20T00:58:18.846Z,172.66
2023-04-20T00:59:19.009Z,173.52
2023-04-20T01:00:18.909Z,171.57
2023-04-20T01:01:18.928Z,171.69
2023-04-20T01:02:18.957Z,172.98
2023-04-20T01:03:19.163Z,172.39
2023-04-20T01:04:19.130Z,172.36
2023-04-20T01:05:19.009Z,173.45
2023-04-20T01:06:19.018Z,172.89
2023-04-20T01:07:19.087Z,170.84
2023-04-20T01:08:19.089Z,171.84
2023-04-20T01:09:19.383Z,170.84
2023-04-20T01:10:19.143Z,173.19
2023-04-20T01:11:19.137Z,170.03
2023-04-20T01:12:19.212Z,171.15
2023-04-20T01:13:19.181Z,170.99
2023-04-20T01:14:19.256Z,172.02
2023-04-20T01:15:19.253Z,171.72
2023-04-20T01:16:19.310Z,170.84
2023-04-20T01:17:19.340Z,171.48
2023-04-20T01:18:19.511Z,170.05
2023-04-20T01:19:19.491Z,170.46
2023-04-20T01:20:19.420Z,170.67
2023-04-20T01:21:19.412Z,171.26
2023-04-20T01:22:19.486Z,170.72
2023-04-20T01:23:19.474Z,170.10
2023-04-20T01:24:19.527Z,170.74
2023-04-20T01:25:19.556Z,169.49
2023-04-20T01:26:19.555Z,168.25
2023-04-20T01:27:19.592Z,169.31
2023-04-20T01:28:19.637Z,168.33
2023-04-20T01:29:19.711Z,168.61
2023-04-20T01:30:19.699Z,170.47
2023-04-20T01:31:19.701Z,167.98
2023-04-20T01:32:19.718Z,168.88
2023-04-20T01:33:19.782Z,168.03
2023-04-20T01:34:19.795Z,168.37
2023-04-20T01:35:19.802Z,167.84
2023-04-20T01:36:19.800Z,166.89
2023-04-20T01:37:19.833Z,168.68
2023-04-20T01:38:19.860Z,168.05
2023-04-20T01:39:20.190Z,168.06
2023-04-20T01:40:19.921Z,168.11
2023-04-20T01:41:19.952Z,168.41
2023-04-20T01:42:19.966Z,167.38
2023-04-20T01:43:20.008Z,167.58
2023-04-20T01:44:20.064Z,168.25
2023-04-20T01:45:20.068Z,167.66
2023-04-20T01:46:20.107Z,165.94
2023-04-20T01:47:20.103Z,167.58
2023-04-20T01:48:20.135Z,168.25
2023-04-20T01:49:20.168Z,166.14
2023-04-20T01:50:20.189Z,167.12
2023-04-20T01:51:20.196Z,168.96
2023-04-20T01:52:20.209Z,166.05
2023-04-20T01:53:20.264Z,167.48
2023-04-20T01:54:20.295Z,166.41
2023-04-20T01:55:20.397Z,166.15
2023-04-20T01:56:20.350Z,167.07
2023-04-20T01:57:20.366Z,165.81
2023-04-20T01:58:20.401Z,166.67
2023-04-20T01:59:20.414Z,166.66
2023-04-20T02:00:20.449Z,165.89
2023-04-20T02:01:20.540Z,165.29
2023-04-20T02:02:20.630Z,166.23
2023-04-20T02:03:20.562Z,165.16
2023-04-20T02:04:20.602Z,165.79
2023-04-20T02:05:20.599Z,165.18
2023-04-20T02:06:20.601Z,164.43
2023-04-20T02:07:20.631Z,164.94
2023-04-20T02:08:20.682Z,164.05
2023-04-20T02:09:20.686Z,164.57
2023-04-20T02:10:20.695Z,163.89
2023-04-20T02:11:20.702Z,165.06
2023-04-20T02:12:20.742Z,164.77
2023-04-20T02:13:20.782Z,164.64
2023-04-20T02:14:20.822Z,165.94
2023-04-20T02:15:20.812Z,164.11
2023-04-20T02:16:20.863Z,162.87
2023-04-20T02:17:21.061Z,165.25
2023-04-20T02:18:20.921Z,163.25
2023-04-20T02:19:20.967Z,163.35
2023-04-20T02:20:20.965Z,164.59
2023-04-20T02:21:21.032Z,163.28
2023-04-20T02:22:21.020Z,162.62
2023-04-20T02:23:21.083Z,165.35
2023-04-20T02:24:21.097Z,163.26
2023-04-20T02:25:21.109Z,163.68
2023-04-20T02:26:21.149Z,162.80
2023-04-20T02:27:21.191Z,162.87
2023-04-20T02:28:21.217Z,163.42
2023-04-20T02:29:21.237Z,162.60
2023-04-20T02:30:21.276Z,163.64
2023-04-20T02:31:21.393Z,163.23
2023-04-20T02:32:21.358Z,162.48
2023-04-20T02:33:21.344Z,162.38
2023-04-20T02:34:21.437Z,162.76
2023-04-20T02:35:21.437Z,160.52
2023-04-20T02:36:21.454Z,162.90
2023-04-20T02:37:21.474Z,162.95
2023-04-20T02:38:21.581Z,162.39
2023-04-20T02:39:21.576Z,161.82
2023-04-20T02:40:21.630Z,161.97
2023-04-20T02:41:21.619Z,161.83
2023-04-20T02:42:21.685Z,161.63
2023-04-20T02:43:21.693Z,159.66
2023-04-20T02:44:21.712Z,162.93
2023-04-20T02:45:21.758Z,159.12
2023-04-20T02:46:21.831Z,160.43
2023-04-20T02:47:21.853Z,160.55
2023-04-20T02:48:21.888Z,160.04
2023-04-20T02:49:21.906Z,161.90
2023-04-20T02:50:21.922Z,159.36
2023-04-20T02:51:21.986Z,159.65
2023-04-20T02:52:22.053Z,160.90
2023-04-20T02:53:22.085Z,160.16
2023-04-20T02:54:22.051Z,160.67
2023-04-20T02:55:22.103Z,159.63
2023-04-20T02:56:22.139Z,160.55
2023-04-20T02:57:22.186Z,161.14
2023-04-20T02:58:22.265Z,159.40
2023-04-20T02:59:22.227Z,159.31
2023-04-20T03:00:22.275Z,160.68
2023-04-20T03:01:22.343Z,160.56
2023-04-20T03:02:22.652Z,158.43
2023-04-20T03:03:22.464Z,158.72
2023-04-20T03:04:22.452Z,159.56
2023-04-20T03:05:22.465Z,157.74
2023-04-20T03:06:22.484Z,159.30
2023-04-20T03:07:22.511Z,156.53
2023-04-20T03:08:22.562Z,159.21
2023-04-20T03:09:22.553Z,159.87
2023-04-20T03:10:22.608Z,158.84
2023-04-20T03:11:22.643Z,158.28
2023-04-20T03:12:22.684Z,156.58
2023-04-20T03:13:22.751Z,158.46
2023-04-20T03:14:22.770Z,155.91
2023-04-20T03:15:22.816Z,158.83
2023-04-20T03:16:22.896Z,157.51
2023-04-20T03:17:22.880Z,155.68
2023-04-20T03:18:22.938Z,157.26
2023-04-20T03:19:22.989Z,156.63
2023-04-20T03:20:23.021Z,157.09
2023-04-20T03:21:23.074Z,157.15
2023-04-20T03:22:23.096Z,156.04
2023-04-20T03:23:23.197Z,157.19
2023-04-20T03:24:23.155Z,157.03
2023-04-20T03:25:23.220Z,154.50
2023-04-20T03:26:23.261Z,154.71
2023-04-20T03:27:23.309Z,154.86
2023-04-20T03:28:23.354Z,154.73
2023-04-20T03:29:23.366Z,154.36
2023-04-20T03:30:23.401Z,156.82
2023-04-20T03:31:23.498Z,152.76
2023-04-20T03:32:23.508Z,153.45
2023-04-20T03:33:23.527Z,155.42
2023-04-20T03:34:23.562Z,157.35
2023-04-20T03:35:23.605Z,153.73
2023-04-20T03:36:23.657Z,155.24
2023-04-20T03:37:23.692Z,154.44
2023-04-20T03:38:23.717Z,154.60
2023-04-20T03:39:23.779Z,152.40
2023-04-20T03:40:23.785Z,151.81
2023-04-20T03:41:23.838Z,152.96
2023-04-20T03:42:23.884Z,154.35
2023-04-20T03:43:23.929Z,155.03
2023-04-20T03:44:23.983Z,151.48
2023-04-20T03:45:24.012Z,152.50
2023-04-20T03:46:24.113Z,153.45
2023-04-20T03:47:24.085Z,151.79
2023-04-20T03:48:24.092Z,151.23
2023-04-20T03:49:24.161Z,149.76
2023-04-20T03:50:24.177Z,150.72
2023-04-20T03:51:24.243Z,151.34
2023-04-20T03:52:24.299Z,151.71
2023-04-20T03:53:24.340Z,150.69
2023-04-20T03:54:24.337Z,152.57
2023-04-20T03:55:24.524Z,153.18
2023-04-20T03:56:24.454Z,151.14
2023-04-20T03:57:24.488Z,152.32
2023-04-20T03:58:24.543Z,151.77
2023-04-20T03:59:24.647Z,151.48
2023-04-20T04:00:24.617Z,151.36
2023-04-20T04:01:24.641Z,151.61
2023-04-20T04:02:24.795Z,150.41
2023-04-20T04:03:24.889Z,151.26
2023-04-20T04:04:24.968Z,151.46
2023-04-20T04:05:24.898Z,150.97
2023-04-20T04:06:24.892Z,151.06
2023-04-20T04:07:24.899Z,151.60
2023-04-20T04:08:24.952Z,150.94
2023-04-20T04:09:24.986Z,150.21
2023-04-20T04:10:25.012Z,148.95
2023-04-20T04:11:25.080Z,149.05
2023-04-20T04:12:25.126Z,147.84
2023-04-20T04:13:25.154Z,148.46
2023-04-20T04:14:25.214Z,148.83
2023-04-20T04:15:25.237Z,149.48
2023-04-20T04:16:25.295Z,149.05
2023-04-20T04:17:25.332Z,148.36
2023-04-20T04:18:25.374Z,147.02
2023-04-20T04:19:25.393Z,148.72
2023-04-20T04:20:25.463Z,148.65
2023-04-20T04:21:25.506Z,148.48
2023-04-20T04:22:25.539Z,147.24
2023-04-20T04:23:25.576Z,148.59
2023-04-20T04:24:25.620Z,148.86
2023-04-20T04:25:25.691Z,147.91
2023-04-20T04:26:25.734Z,148.71
2023-04-20T04:27:25.745Z,147.19
2023-04-20T04:28:25.830Z,148.77
2023-04-20T04:29:25.868Z,147.63
2023-04-20T04:30:25.897Z,147.79
2023-04-20T04:31:26.010Z,147.83
2023-04-20T04:32:26.045Z,149.00
2023-04-20T04:33:26.047Z,147.38
2023-04-20T04:34:26.082Z,147.56
2023-04-20T04:35:26.228Z,146.71
2023-04-20T04:36:26.177Z,147.35
2023-04-20T04:37:26.214Z,147.42
2023-04-20T04:38:26.264Z,146.29
2023-04-20T04:39:26.316Z,146.43
2023-04-20T04:40:26.359Z,146.80
2023-04-20T04:41:26.416Z,146.96
2023-04-20T04:42:26.447Z,144.25
2023-04-20T04:43:26.507Z,145.65
2023-04-20T04:44:26.573Z,145.78
2023-04-20T04:45:26.585Z,145.53
2023-04-20T04:46:26.670Z,144.21
2023-04-20T04:47:26.720Z,144.13
2023-04-20T04:48:26.714Z,146.02
2023-04-20T04:49:26.832Z,146.20
2023-04-20T04:50:26.857Z,144.08
2023-04-20T04:51:26.839Z,144.93
2023-04-20T04:52:26.909Z,145.83
2023-04-20T04:53:26.949Z,144.94
2023-04-20T04:54:26.999Z,144.86
2023-04-20T04:55:26.990Z,146.09
2023-04-20T04:56:27.072Z,145.49
2023-04-20T04:57:27.103Z,141.94
2023-04-20T04:58:27.146Z,143.96
2023-04-20T04:59:27.209Z,145.30
2023-04-20T05:00:27.269Z,144.26
2023-04-20T05:01:27.290Z,143.68
2023-04-20T05:02:27.500Z,144.81
2023-04-20T05:03:27.476Z,142.82
2023-04-20T05:04:27.499Z,143.28
2023-04-20T05:05:27.473Z,144.73
2023-04-20T05:06:27.539Z,143.22
2023-04-20T05:07:27.533Z,140.63
2023-04-20T05:08:27.602Z,141.20
2023-04-20T05:09:27.632Z,141.85
2023-04-20T05:10:27.703Z,142.85
2023-04-20T05:11:27.717Z,140.86
2023-04-20T05:12:27.770Z,142.66
2023-04-20T05:13:27.792Z,141.99
2023-04-20T05:14:27.807Z,141.47
2023-04-20T05:15:27.879Z,138.32
2023-04-20T05:16:27.928Z,137.88
2023-04-20T05:17:27.912Z,139.42
2023-04-20T05:18:27.915Z,139.04
2023-04-20T05:19:27.935Z,138.18
2023-04-20T05:20:27.926Z,138.11
2023-04-20T05:21:27.937Z,136.09
2023-04-20T05:22:27.926Z,135.97
2023-04-20T05:23:27.966Z,134.11
2023-04-20T05:24:27.959Z,136.05
2023-04-20T05:25:27.962Z,133.34
2023-04-20T05:26:27.965Z,133.81
2023-04-20T05:27:27.958Z,132.15
2023-04-20T05:28:27.959Z,134.68
2023-04-20T05:29:27.982Z,132.51
2023-04-20T05:30:27.997Z,133.15
2023-04-20T05:31:28.083Z,131.77
2023-04-20T05:32:28.311Z,132.89
2023-04-20T05:33:28.139Z,131.54
2023-04-20T05:34:28.227Z,131.34
2023-04-20T05:35:28.243Z,132.36
2023-04-20T05:36:28.287Z,130.26
2023-04-20T05:37:28.377Z,130.35
2023-04-20T05:38:28.411Z,130.50
2023-04-20T05:39:28.501Z,129.89
2023-04-20T05:40:28.546Z,128.77
2023-04-20T05:41:28.582Z,128.59
2023-04-20T05:42:28.657Z,128.81
2023-04-20T05:43:28.731Z,128.69
2023-04-20T05:44:28.736Z,127.01
2023-04-20T05:45:28.838Z,129.63
2023-04-20T05:46:28.861Z,128.16
2023-04-20T05:47:28.985Z,126.84
2023-04-20T05:48:30.058Z,127.72
2023-04-20T05:49:29.018Z,128.14
2023-04-20T05:50:29.092Z,127.75
2023-04-20T05:51:29.116Z,127.35
2023-04-20T05:52:29.133Z,126.92
2023-04-20T05:53:29.217Z,126.47
2023-04-20T05:54:29.230Z,124.68
2023-04-20T05:55:29.280Z,128.03
2023-04-20T05:56:29.330Z,126.09
2023-04-20T05:57:29.419Z,126.84
2023-04-20T05:58:29.457Z,128.65
2023-04-20T05:59:29.479Z,127.83
2023-04-20T06:00:29.531Z,125.72
2023-04-20T06:01:29.643Z,125.47
2023-04-20T06:02:29.661Z,125.68
2023-04-20T06:03:29.904Z,126.46
2023-04-20T06:04:30.086Z,126.11
2023-04-20T06:05:29.756Z,125.23
2023-04-20T06:06:29.784Z,125.07
2023-04-20T06:07:29.826Z,125.55
2023-04-20T06:08:29.865Z,125.34
2023-04-20T06:09:29.873Z,125.92
2023-04-20T06:10:29.938Z,125.68
2023-04-20T06:11:29.954Z,125.19
2023-04-20T06:12:30.037Z,122.79
2023-04-20T06:13:30.068Z,124.01
2023-04-20T06:14:30.110Z,124.22
2023-04-20T06:15:30.140Z,124.30
2023-04-20T06:16:30.232Z,125.35
2023-04-20T06:17:30.291Z,124.45
2023-04-20T06:18:30.252Z,122.65
2023-04-20T06:19:30.292Z,124.95
2023-04-20T06:20:30.347Z,124.73
2023-04-20T06:21:30.419Z,125.28
2023-04-20T06:22:30.457Z,123.47
2023-04-20T06:23:30.512Z,123.49
2023-04-20T06:24:30.512Z,122.79
2023-04-20T06:25:30.611Z,123.14
2023-04-20T06:26:30.657Z,123.33
2023-04-20T06:27:30.706Z,122.85
2023-04-20T06:28:30.704Z,122.47
2023-04-20T06:29:30.756Z,124.18
2023-04-20T06:30:30.817Z,122.16
2023-04-20T06:31:30.893Z,122.12
2023-04-20T06:32:30.939Z,121.54
2023-04-20T06:33:30.974Z,122.80
2023-04-20T06:34:31.037Z,123.28
2023-04-20T06:35:31.106Z,122.53
2023-04-20T06:36:31.140Z,122.85
2023-04-20T06:37:31.198Z,121.97
2023-04-20T06:38:31.226Z,120.80
2023-04-20T06:39:31.286Z,122.24
2023-04-20T06:40:31.307Z,122.44
2023-04-20T06:41:31.368Z,123.44
2023-04-20T06:42:31.423Z,121.57
2023-04-20T06:43:31.489Z,120.98
2023-04-20T06:44:31.550Z,122.01
2023-04-20T06:45:33.584Z,121.28
2023-04-20T06:46:31.773Z,120.84
2023-04-20T06:47:31.801Z,121.33
2023-04-20T06:48:32.983Z,122.26
2023-04-20T06:49:31.887Z,121.37
2023-04-20T06:50:31.924Z,120.44
2023-04-20T06:51:32.029Z,122.57
2023-04-20T06:52:32.093Z,120.88
2023-04-20T06:53:32.132Z,122.54
2023-04-20T06:54:32.175Z,119.37
2023-04-20T06:55:32.236Z,122.60
2023-04-20T06:56:33.593Z,121.51
2023-04-20T06:57:32.478Z,122.00
2023-04-20T06:58:32.642Z,122.02
2023-04-20T06:59:32.627Z,121.24
2023-04-20T07:00:32.703Z,121.13
2023-04-20T07:01:32.850Z,122.07
2023-04-20T07:02:32.856Z,120.57
2023-04-20T07:03:33.034Z,119.72
2023-04-20T07:04:33.006Z,121.51
2023-04-20T07:05:32.973Z,120.08
2023-04-20T07:06:33.080Z,121.35
2023-04-20T07:07:33.963Z,120.11
2023-04-20T07:08:33.375Z,119.80
2023-04-20T07:09:33.245Z,121.61
2023-04-20T07:10:33.332Z,120.99
2023-04-20T07:11:33.365Z,120.31
2023-04-20T07:12:33.456Z,119.10
2023-04-20T07:13:34.135Z,120.21
2023-04-20T07:14:33.565Z,121.89
2023-04-20T07:15:33.649Z,121.65
2023-04-20T07:16:33.799Z,121.29
2023-04-20T07:17:33.847Z,121.12
2023-04-20T07:18:35.592Z,121.27
2023-04-20T07:19:33.759Z,121.28
2023-04-20T07:20:33.768Z,121.01
2023-04-20T07:21:33.737Z,121.27
2023-04-20T07:22:33.735Z,121.45
2023-04-20T07:23:33.723Z,121.85
2023-04-20T07:24:33.913Z,119.91
2023-04-20T07:25:33.740Z,121.13
2023-04-20T07:26:33.785Z,121.08
2023-04-20T07:27:33.811Z,120.29
2023-04-20T07:28:33.922Z,118.09
2023-04-20T07:29:34.199Z,121.26
2023-04-20T07:30:33.982Z,120.04
2023-04-20T07:31:35.440Z,119.61
2023-04-20T07:32:34.156Z,120.88
2023-04-20T07:33:34.204Z,119.20
2023-04-20T07:34:34.252Z,119.72
2023-04-20T07:35:34.319Z,120.22
2023-04-20T07:36:34.397Z,118.25
2023-04-20T07:37:34.443Z,119.02
2023-04-20T07:38:34.489Z,120.52
2023-04-20T07:39:34.545Z,120.53
2023-04-20T07:40:34.631Z,120.04
2023-04-20T07:41:34.634Z,118.63
2023-04-20T07:42:34.698Z,118.72
2023-04-20T07:43:34.749Z,119.59
2023-04-20T07:44:34.792Z,119.63
2023-04-20T07:45:34.957Z,119.08
2023-04-20T07:46:35.039Z,118.29
2023-04-20T07:47:34.971Z,122.74
2023-04-20T07:48:35.009Z,123.64
2023-04-20T07:49:35.071Z,126.64
2023-04-20T07:50:35.147Z,138.26
2023-04-20T07:51:35.170Z,144.15
2023-04-20T07:52:35.223Z,147.63
2023-04-20T07:53:35.226Z,145.19
2023-04-20T07:54:35.264Z,153.94
2023-04-20T07:56:09.090Z,25.00
2023-04-20T07:57:09.094Z,25.00
2023-04-20T07:58:09.095Z,25.00
2023-04-20T07:59:09.052Z,25.00
2023-04-20T08:00:09.068Z,25.00
2023-04-20T08:01:09.073Z,27.16
2023-04-20T08:02:09.235Z,41.67
2023-04-20T08:03:09.258Z,50.81
2023-04-20T08:04:09.190Z,30.24
2023-04-20T08:05:09.208Z,33.86
2023-04-20T08:06:09.021Z,39.77
2023-04-20T08:07:09.012Z,37.47
2023-04-20T08:08:09.026Z,37.94
2023-04-20T08:09:09.675Z,42.21
2023-04-20T08:10:09.038Z,44.99
2023-04-20T08:11:09.006Z,37.05
2023-04-20T08:12:08.997Z,36.38
2023-04-20T08:13:09.071Z,38.77
2023-04-20T08:14:09.319Z,38.94
2023-04-20T08:15:08.961Z,45.73
2023-04-20T08:16:08.987Z,46.02
2023-04-20T08:17:08.950Z,53.53
2023-04-20T08:18:09.019Z,57.51
2023-04-20T08:19:08.929Z,55.71
2023-04-20T08:20:08.932Z,56.08
2023-04-20T08:21:08.937Z,58.09
2023-04-20T08:22:08.904Z,58.61
2023-04-20T08:23:08.922Z,53.14
2023-04-20T08:24:08.949Z,51.63
2023-04-20T08:25:08.919Z,54.34
2023-04-20T08:26:08.872Z,49.97
2023-04-20T08:27:08.963Z,46.16
2023-04-20T08:28:12.174Z,46.32
2023-04-20T08:29:09.870Z,46.56
2023-04-20T08:30:08.889Z,47.78
2023-04-20T08:31:08.948Z,50.94
2023-04-20T08:32:08.858Z,52.62
2023-04-20T08:33:08.912Z,50.92
2023-04-20T08:34:08.888Z,53.58
2023-04-20T08:35:08.876Z,45.12
2023-04-20T08:36:08.817Z,45.34
2023-04-20T08:37:08.806Z,42.55
2023-04-20T08:38:08.793Z,32.87
2023-04-20T08:39:08.809Z,36.16
2023-04-20T08:40:08.785Z,41.80
2023-04-20T08:41:08.786Z,42.32
2023-04-20T08:42:08.799Z,40.70
2023-04-20T08:43:08.757Z,37.99
2023-04-20T08:44:08.827Z,36.00
2023-04-20T08:45:08.756Z,28.55
2023-04-20T08:46:08.830Z,43.89
2023-04-20T08:47:08.815Z,55.26
2023-04-20T08:48:08.774Z,59.26
2023-04-20T08:49:08.802Z,57.40
2023-04-20T08:50:08.773Z,68.72
2023-04-20T08:51:08.778Z,66.83
2023-04-20T08:52:08.779Z,76.95
2023-04-20T08:53:08.822Z,65.67
2023-04-20T08:54:08.835Z,68.14
2023-04-20T08:55:08.840Z,76.24
2023-04-20T08:56:08.813Z,79.45
2023-04-20T08:57:08.856Z,97.96
2023-04-20T08:58:08.859Z,103.04
2023-04-20T08:59:08.830Z,105.55
2023-04-20T09:00:09.202Z,116.18
2023-04-20T09:01:08.905Z,120.38
2023-04-20T09:02:09.023Z,126.69
2023-04-20T09:03:09.058Z,130.98
2023-04-20T09:04:09.041Z,136.25
2023-04-20T09:05:08.921Z,141.88
2023-04-20T09:06:08.889Z,141.47
2023-04-20T09:07:08.895Z,143.13
2023-04-20T09:08:08.926Z,148.29
2023-04-20T09:09:08.900Z,149.47
2023-04-20T09:10:08.910Z,149.21
2023-04-20T09:11:08.921Z,151.28
2023-04-20T09:12:08.914Z,153.46
2023-04-20T09:13:08.915Z,154.62
2023-04-20T09:14:08.989Z,156.32
2023-04-20T09:15:08.913Z,159.11
2023-04-20T09:16:08.973Z,159.19
2023-04-20T09:17:08.908Z,163.97
2023-04-20T09:18:08.970Z,169.54
2023-04-20T09:19:09.534Z,167.89
2023-04-20T09:20:08.895Z,171.63
2023-04-20T09:21:08.926Z,173.04
2023-04-20T09:22:08.959Z,175.91
2023-04-20T09:23:08.964Z,181.19
2023-04-20T09:24:09.006Z,182.10
2023-04-20T09:25:09.042Z,183.35
2023-04-20T09:26:09.093Z,189.24
2023-04-20T09:27:09.095Z,189.24
2023-04-20T09:28:09.788Z,192.91
2023-04-20T09:29:09.175Z,193.26
2023-04-20T09:30:09.237Z,196.35
2023-04-20T09:31:09.255Z,198.53
2023-04-20T09:32:09.318Z,198.14
2023-04-20T09:33:09.383Z,200.56
2023-04-20T09:34:09.350Z,206.12
2023-04-20T09:35:09.392Z,204.59
2023-04-20T09:36:09.396Z,207.00
2023-04-20T09:37:09.408Z,206.82
2023-04-20T09:38:09.443Z,210.80
2023-04-20T09:39:09.474Z,206.84
2023-04-20T09:40:09.557Z,208.07
2023-04-20T09:41:09.539Z,209.18
2023-04-20T09:42:09.576Z,214.88
2023-04-20T09:43:09.745Z,216.51
2023-04-20T09:44:09.646Z,216.37
2023-04-20T09:45:09.621Z,215.87
2023-04-20T09:46:09.719Z,216.85
2023-04-20T09:47:09.706Z,207.92
2023-04-20T09:48:09.756Z,202.42
2023-04-20T09:49:09.765Z,58.37
2023-04-20T09:50:22.977Z,88.43
2023-04-20T09:51:10.756Z,66.33
2023-04-20T09:52:09.755Z,0.00
2023-04-20T09:53:09.755Z,0.00
2023-04-20T09:54:09.769Z,0.00
2023-04-20T09:55:09.784Z,0.00
2023-04-20T09:56:09.744Z,31.38
2023-04-20T09:57:09.690Z,46.83
2023-04-20T09:58:09.719Z,60.54
2023-04-20T09:59:09.721Z,65.74
2023-04-20T10:00:09.762Z,74.01
2023-04-20T10:01:09.756Z,85.27
2023-04-20T10:02:09.794Z,94.44
2023-04-20T10:03:09.875Z,99.48
2023-04-20T10:04:09.897Z,111.49
2023-04-20T10:05:09.691Z,116.56
2023-04-20T10:06:09.686Z,122.76
2023-04-20T10:07:09.637Z,149.76
2023-04-20T10:08:09.668Z,161.46
2023-04-20T10:09:09.673Z,160.16
2023-04-20T10:10:09.688Z,165.90
2023-04-20T10:11:09.743Z,165.39
2023-04-20T10:12:09.835Z,169.38
2023-04-20T10:13:09.851Z,174.53
2023-04-20T10:14:09.912Z,174.08
2023-04-20T10:15:09.952Z,182.37
2023-04-20T10:16:09.979Z,186.02
2023-04-20T10:17:10.188Z,190.57
2023-04-20T10:18:10.126Z,192.67
2023-04-20T10:19:10.096Z,198.92
2023-04-20T10:20:10.149Z,202.85
2023-04-20T10:21:10.177Z,223.27
2023-04-20T10:22:10.213Z,219.53
2023-04-20T10:23:10.234Z,221.27
2023-04-20T10:24:10.285Z,230.39
2023-04-20T10:25:10.298Z,233.04
2023-04-20T10:26:10.305Z,239.33
2023-04-20T10:27:10.330Z,248.53
2023-04-20T10:28:10.396Z,249.83
2023-04-20T10:29:10.385Z,249.20
2023-04-20T10:30:10.417Z,238.37
2023-04-20T10:31:10.510Z,250.00
2023-04-20T10:32:10.462Z,249.98
2023-04-20T10:33:10.512Z,250.00
2023-04-20T10:34:10.529Z,250.00
2023-04-20T10:35:10.574Z,249.69
2023-04-20T10:36:10.592Z,248.41
2023-04-20T10:37:10.575Z,250.00
2023-04-20T10:38:10.579Z,248.31
2023-04-20T10:39:10.586Z,249.27
2023-04-20T10:40:10.606Z,250.00
2023-04-20T10:41:10.612Z,230.79
2023-04-20T10:42:10.613Z,223.16
2023-04-20T10:43:10.654Z,133.41
2023-04-20T10:44:10.683Z,30.92
2023-04-20T10:45:10.764Z,16.46
2023-04-20T10:46:10.769Z,4.31
2023-04-20T10:47:10.750Z,13.55
2023-04-20T10:48:10.843Z,14.83
2023-04-20T10:49:10.786Z,24.21
2023-04-20T10:50:10.835Z,26.11
2023-04-20T10:51:10.831Z,26.87
2023-04-20T10:52:10.883Z,19.03
2023-04-20T10:53:10.932Z,16.06
2023-04-20T10:54:10.923Z,26.15
2023-04-20T10:55:11.008Z,31.08
2023-04-20T10:56:11.049Z,33.32
2023-04-20T10:57:11.114Z,32.42
2023-04-20T10:58:11.156Z,22.42
2023-04-20T10:59:11.250Z,23.82
2023-04-20T11:00:11.221Z,26.78
2023-04-20T11:01:11.228Z,23.04
2023-04-20T11:02:11.299Z,0.00
2023-04-20T11:03:11.355Z,0.00
2023-04-20T11:04:11.338Z,0.00
2023-04-20T11:05:11.443Z,0.00
2023-04-20T11:06:11.387Z,0.00
2023-04-20T11:07:11.409Z,10.56
2023-04-20T11:08:11.618Z,10.80
2023-04-20T11:09:11.454Z,26.85
2023-04-20T11:10:11.488Z,26.73
2023-04-20T11:11:11.506Z,25.80
2023-04-20T11:12:11.512Z,21.93
2023-04-20T11:13:11.583Z,28.62
2023-04-20T11:14:11.621Z,31.48
2023-04-20T11:15:11.679Z,29.69
2023-04-20T11:16:11.670Z,33.90
2023-04-20T11:17:11.766Z,23.70
2023-04-20T11:18:11.773Z,23.72
2023-04-20T11:19:11.729Z,28.02
2023-04-20T11:20:11.765Z,33.75
2023-04-20T11:21:11.804Z,29.46
2023-04-20T11:22:11.807Z,25.00
2023-04-20T11:23:11.813Z,25.00
2023-04-20T11:24:11.891Z,28.20
2023-04-20T11:25:11.876Z,32.35
2023-04-20T11:26:11.919Z,33.20
2023-04-20T11:27:11.927Z,35.00
2023-04-20T11:28:11.998Z,40.41
2023-04-20T11:29:12.010Z,46.66
2023-04-20T11:30:12.033Z,53.41
2023-04-20T11:31:12.128Z,56.27
2023-04-20T11:32:12.260Z,60.42
2023-04-20T11:33:12.351Z,77.98
2023-04-20T11:34:12.182Z,74.02
2023-04-20T11:35:12.243Z,62.07
2023-04-20T11:36:12.230Z,71.21
2023-04-20T11:37:12.255Z,80.09
2023-04-20T11:38:12.235Z,88.07
2023-04-20T11:39:12.267Z,83.13
2023-04-20T11:40:12.270Z,74.28
2023-04-20T11:41:12.296Z,76.77
2023-04-20T11:42:12.321Z,73.77
2023-04-20T11:43:12.369Z,65.08
2023-04-20T11:44:12.376Z,68.13
2023-04-20T11:45:12.404Z,67.11
2023-04-20T11:46:12.526Z,59.63
2023-04-20T11:47:12.491Z,68.79
2023-04-20T11:48:12.518Z,78.32
2023-04-20T11:49:12.510Z,82.27
2023-04-20T11:50:12.568Z,79.31
2023-04-20T11:51:12.553Z,73.21
2023-04-20T11:52:12.533Z,73.66
2023-04-20T11:53:12.561Z,79.77
2023-04-20T11:54:12.600Z,81.07
2023-04-20T11:55:12.665Z,92.02
2023-04-20T11:56:12.681Z,90.93
2023-04-20T11:57:12.707Z,95.92
2023-04-20T11:58:12.791Z,104.28
2023-04-20T11:59:12.840Z,99.40
2023-04-20T12:00:12.886Z,93.76
2023-04-20T12:01:12.942Z,97.92
2023-04-20T12:02:13.071Z,101.77
2023-04-20T12:03:13.314Z,97.70
2023-04-20T12:04:13.427Z,90.28
2023-04-20T12:05:13.335Z,89.64
2023-04-20T12:06:13.216Z,78.49
2023-04-20T12:07:13.220Z,79.20
2023-04-20T12:08:13.245Z,80.60
2023-04-20T12:09:13.354Z,74.13
2023-04-20T12:10:13.384Z,67.14
2023-04-20T12:11:13.395Z,65.36
2023-04-20T12:12:13.417Z,56.13
2023-04-20T12:13:13.490Z,50.74
2023-04-20T12:14:13.514Z,53.79
2023-04-20T12:15:13.559Z,57.12
2023-04-20T12:16:13.625Z,62.67
2023-04-20T12:17:13.567Z,68.68
2023-04-20T12:18:13.651Z,73.62
2023-04-20T12:19:13.685Z,76.57
2023-04-20T12:20:13.759Z,79.38
2023-04-20T12:21:13.687Z,83.33
2023-04-20T12:22:13.703Z,81.25
2023-04-20T12:23:13.716Z,81.36
2023-04-20T12:24:13.730Z,85.65
2023-04-20T12:25:13.829Z,81.62
2023-04-20T12:26:13.899Z,82.52
2023-04-20T12:27:13.924Z,80.22
2023-04-20T12:28:14.016Z,94.33
2023-04-20T12:29:13.997Z,93.05
2023-04-20T12:30:14.062Z,90.79
2023-04-20T12:31:14.243Z,99.03
2023-04-20T12:32:14.168Z,104.21
2023-04-20T12:33:14.265Z,112.90
2023-04-20T12:34:14.269Z,125.39
2023-04-20T12:35:14.336Z,128.83